Time;durP1;ratioP1;P1;durP2;ratioP2;P2;SDS_P1;SDS_P2;PMS_P1;PMS_P2;Temp;Humidity;BMP_temperature;BMP_pressure;BME280_temperature;BME280_humidity;BME280_pressure;Samples;Min_cycle;Max_cycle;Signal;HPM_P1;HPM_P2
2022/07/07 02:27:39;;;;;;;12.10;11.50;;;16.00;99.90;;;;;;5253020;23;20571;-73
2022/07/07 02:30:08;;;;;;;12.00;11.40;;;16.00;99.90;;;;;;4939856;28;20470;-72
2022/07/07 02:32:34;;;;;;;11.37;10.80;;;16.00;99.90;;;;;;4937485;29;20504;-73
2022/07/07 02:35:01;;;;;;;12.30;11.70;;;15.90;99.90;;;;;;4943537;29;20576;-72
2022/07/07 02:37:28;;;;;;;12.33;11.70;;;16.00;99.90;;;;;;4935093;29;20473;-73
2022/07/07 02:39:55;;;;;;;13.10;12.07;;;16.00;99.90;;;;;;4935161;29;20557;-72
2022/07/07 02:42:21;;;;;;;12.13;11.33;;;16.00;99.90;;;;;;4934536;29;20544;-73
2022/07/07 02:44:49;;;;;;;12.33;11.43;;;16.00;99.90;;;;;;4934919;29;20464;-73
2022/07/07 02:47:16;;;;;;;12.03;11.23;;;16.00;99.90;;;;;;4934548;29;21021;-74
2022/07/07 02:49:43;;;;;;;12.10;11.50;;;16.00;99.90;;;;;;4934737;29;20457;-74
2022/07/07 02:52:09;;;;;;;13.27;12.03;;;16.00;99.90;;;;;;4934642;29;20704;-72
2022/07/07 02:54:36;;;;;;;13.83;12.97;;;16.00;99.90;;;;;;4934519;29;20633;-73
2022/07/07 02:57:03;;;;;;;11.40;10.93;;;15.90;99.90;;;;;;4934654;29;20460;-73
2022/07/07 02:59:29;;;;;;;12.00;11.40;;;16.00;99.90;;;;;;4934754;29;20458;-73
2022/07/07 03:01:57;;;;;;;13.00;12.10;;;16.00;99.90;;;;;;4934123;29;20457;-73
2022/07/07 03:04:24;;;;;;;12.83;11.93;;;15.90;99.90;;;;;;4933835;29;20453;-73
2022/07/07 03:06:51;;;;;;;12.73;11.90;;;15.90;99.90;;;;;;4934293;29;20541;-73
2022/07/07 03:09:17;;;;;;;12.17;11.57;;;16.00;99.90;;;;;;4934140;29;20508;-73
2022/07/07 03:11:44;;;;;;;12.60;11.80;;;15.90;99.90;;;;;;4934067;29;20460;-73
2022/07/07 03:14:10;;;;;;;13.10;12.37;;;16.00;99.90;;;;;;4934007;29;20520;-73
2022/07/07 03:16:38;;;;;;;12.33;11.57;;;16.00;99.90;;;;;;4933642;29;20460;-74
2022/07/07 03:19:06;;;;;;;11.73;11.23;;;16.00;99.90;;;;;;4933964;29;20454;-75
2022/07/07 03:21:33;;;;;;;12.73;11.97;;;16.00;99.90;;;;;;4934022;29;20959;-74
2022/07/07 03:24:00;;;;;;;12.50;11.80;;;16.20;99.90;;;;;;4933975;29;20501;-74
2022/07/07 03:26:26;;;;;;;12.70;12.00;;;16.10;99.90;;;;;;4933377;29;20493;-74
2022/07/07 03:28:53;;;;;;;12.80;12.30;;;16.20;99.90;;;;;;4933566;29;20460;-73
2022/07/07 03:31:20;;;;;;;13.07;12.37;;;16.20;99.90;;;;;;4933778;29;20464;-73
2022/07/07 03:33:46;;;;;;;13.53;12.80;;;16.20;99.90;;;;;;4936041;29;20469;-74
2022/07/07 03:36:14;;;;;;;13.23;12.53;;;16.20;99.90;;;;;;4942258;29;20469;-73
2022/07/07 03:38:41;;;;;;;12.50;11.97;;;16.20;99.90;;;;;;4933680;29;20465;-72
2022/07/07 03:41:08;;;;;;;12.50;11.90;;;16.20;99.90;;;;;;4933615;29;20465;-72
2022/07/07 03:43:34;;;;;;;12.60;12.00;;;16.30;99.90;;;;;;4933449;29;20489;-73
2022/07/07 03:46:01;;;;;;;12.43;11.63;;;16.40;99.90;;;;;;4933678;29;20464;-74
2022/07/07 03:48:29;;;;;;;12.30;11.70;;;16.40;99.90;;;;;;4933442;29;20564;-73
2022/07/07 03:50:55;;;;;;;14.03;12.43;;;16.50;99.90;;;;;;4933391;29;20617;-74
2022/07/07 03:53:23;;;;;;;12.57;11.77;;;16.60;99.90;;;;;;4933566;29;20454;-74
2022/07/07 03:55:50;;;;;;;13.83;12.93;;;16.60;99.90;;;;;;4933170;29;20461;-75
2022/07/07 03:58:17;;;;;;;12.83;12.13;;;16.60;99.90;;;;;;4933031;29;20461;-74
2022/07/07 04:00:43;;;;;;;13.87;12.83;;;16.70;99.90;;;;;;4933233;29;20465;-74
2022/07/07 04:03:10;;;;;;;13.23;12.30;;;16.70;99.90;;;;;;4932965;29;20489;-74
2022/07/07 04:05:36;;;;;;;12.60;12.10;;;16.70;99.90;;;;;;4933161;29;20457;-74
2022/07/07 04:08:03;;;;;;;12.83;12.23;;;16.80;99.90;;;;;;4933457;29;20798;-74
2022/07/07 04:10:31;;;;;;;12.53;12.03;;;16.70;99.90;;;;;;4933276;29;20453;-75
2022/07/07 04:12:58;;;;;;;13.80;12.77;;;16.70;99.90;;;;;;4933234;29;20857;-76
2022/07/07 04:15:25;;;;;;;13.63;12.53;;;16.70;99.90;;;;;;4932832;29;20954;-75
2022/07/07 04:17:52;;;;;;;14.10;13.30;;;16.90;99.90;;;;;;4933102;29;20842;-75
2022/07/07 04:20:18;;;;;;;13.00;12.47;;;17.00;99.90;;;;;;4933467;29;20909;-75
2022/07/07 04:22:45;;;;;;;13.10;12.40;;;17.00;99.90;;;;;;4932947;29;20500;-75
2022/07/07 04:25:12;;;;;;;13.50;12.90;;;17.00;99.90;;;;;;4932665;29;20991;-75
2022/07/07 04:27:40;;;;;;;13.27;12.53;;;17.00;99.90;;;;;;4932435;29;20485;-74
2022/07/07 04:30:08;;;;;;;14.00;12.73;;;17.00;99.90;;;;;;4932764;29;20461;-73
2022/07/07 04:32:34;;;;;;;12.83;12.23;;;17.00;99.90;;;;;;4932748;29;20512;-73
2022/07/07 04:35:01;;;;;;;12.30;11.80;;;16.90;99.90;;;;;;4935007;29;20476;-73
2022/07/07 04:37:28;;;;;;;13.30;12.50;;;16.90;99.90;;;;;;4941005;29;20461;-72
2022/07/07 04:39:54;;;;;;;12.93;12.33;;;16.90;99.90;;;;;;4932579;29;20508;-72
2022/07/07 04:42:21;;;;;;;13.13;12.33;;;16.80;99.90;;;;;;4932544;29;20462;-72
2022/07/07 04:44:49;;;;;;;13.27;12.00;;;16.90;99.90;;;;;;4932846;29;20465;-73
2022/07/07 04:47:16;;;;;;;14.00;13.10;;;16.90;99.90;;;;;;4932505;29;20472;-72
2022/07/07 04:49:42;;;;;;;13.63;12.70;;;16.90;99.90;;;;;;4932733;29;20916;-73
2022/07/07 04:52:09;;;;;;;12.07;11.57;;;17.00;99.90;;;;;;4932591;29;20886;-73
2022/07/07 04:54:36;;;;;;;12.87;12.30;;;17.10;99.90;;;;;;4932609;29;20449;-73
2022/07/07 04:57:03;;;;;;;12.60;11.80;;;17.20;99.90;;;;;;4932958;29;20469;-72
2022/07/07 04:59:30;;;;;;;12.80;12.20;;;17.10;99.90;;;;;;4932684;29;20461;-72
2022/07/07 05:01:58;;;;;;;12.40;11.80;;;17.00;99.90;;;;;;4932519;29;20974;-73
2022/07/07 05:04:25;;;;;;;12.37;11.60;;;17.00;99.90;;;;;;4932381;29;20763;-73
2022/07/07 05:06:51;;;;;;;12.13;11.63;;;17.00;99.90;;;;;;4932494;29;20490;-73
2022/07/07 05:09:18;;;;;;;11.93;11.10;;;17.40;99.90;;;;;;4932552;29;20461;-73
2022/07/07 05:11:45;;;;;;;11.93;11.23;;;17.90;99.90;;;;;;4936007;29;20951;-73
2022/07/07 05:14:12;;;;;;;13.00;12.37;;;17.80;99.90;;;;;;4936523;29;20449;-74
2022/07/07 05:16:39;;;;;;;12.60;11.63;;;17.90;99.90;;;;;;4936359;29;20991;-74
2022/07/07 05:19:09;;;;;;;12.83;12.13;;;17.90;99.90;;;;;;4936130;29;20457;-74
2022/07/07 05:21:36;;;;;;;12.40;11.60;;;17.80;99.90;;;;;;4936269;29;20561;-73
2022/07/07 05:24:02;;;;;;;11.50;10.90;;;18.00;99.90;;;;;;4936464;29;20522;-74
2022/07/07 05:26:29;;;;;;;13.33;12.50;;;18.40;99.90;;;;;;4936283;29;20511;-72
2022/07/07 05:28:56;;;;;;;13.00;12.10;;;18.40;99.90;;;;;;4936729;29;20844;-73
2022/07/07 05:31:22;;;;;;;13.27;12.57;;;18.40;99.90;;;;;;4936574;29;20801;-73
2022/07/07 05:33:49;;;;;;;13.00;12.30;;;18.40;99.90;;;;;;4936125;29;20461;-73
2022/07/07 05:36:17;;;;;;;12.23;11.63;;;18.60;99.90;;;;;;4936304;29;20464;-72
2022/07/07 05:38:45;;;;;;;13.30;12.60;;;18.30;99.90;;;;;;4936060;29;20473;-73
2022/07/07 05:41:12;;;;;;;12.97;12.17;;;18.10;99.90;;;;;;4935727;29;20461;-72
2022/07/07 05:43:38;;;;;;;13.03;12.33;;;18.00;99.90;;;;;;4935655;29;21050;-73
2022/07/07 05:46:05;;;;;;;13.37;12.37;;;18.10;99.90;;;;;;4935823;29;20450;-72
2022/07/07 05:48:32;;;;;;;13.30;12.60;;;18.30;99.90;;;;;;4935565;29;20464;-73
2022/07/07 05:50:58;;;;;;;14.13;12.70;;;18.70;99.90;;;;;;4936080;29;20453;-72
2022/07/07 05:53:26;;;;;;;12.80;11.90;;;19.30;99.20;;;;;;4935783;29;20457;-73
2022/07/07 05:55:53;;;;;;;13.10;12.40;;;19.80;97.70;;;;;;4935621;29;20465;-73
2022/07/07 05:58:20;;;;;;;12.83;12.20;;;20.10;96.70;;;;;;4935494;29;20496;-73
2022/07/07 06:00:47;;;;;;;12.50;11.57;;;20.30;96.50;;;;;;4935821;29;20453;-73
2022/07/07 06:03:13;;;;;;;13.60;13.00;;;20.30;96.30;;;;;;4935610;29;20489;-73
2022/07/07 06:05:41;;;;;;;12.90;12.40;;;20.50;96.20;;;;;;4935418;29;20469;-73
2022/07/07 06:08:08;;;;;;;13.50;12.83;;;20.40;95.90;;;;;;4935327;29;20485;-74
2022/07/07 06:10:37;;;;;;;12.90;12.30;;;20.30;96.30;;;;;;4935407;29;20453;-74
2022/07/07 06:13:04;;;;;;;13.10;12.50;;;21.00;95.50;;;;;;4935792;29;20453;-74
2022/07/07 06:15:33;;;;;;;12.90;12.30;;;21.50;94.40;;;;;;4935310;29;20571;-75
2022/07/07 06:18:00;;;;;;;13.97;13.20;;;21.80;93.10;;;;;;4935282;29;20458;-76
2022/07/07 06:20:27;;;;;;;13.50;12.90;;;21.40;93.50;;;;;;4934997;29;20465;-75
2022/07/07 06:22:53;;;;;;;13.23;12.43;;;21.30;94.00;;;;;;4934211;29;20472;-76
2022/07/07 06:25:21;;;;;;;13.53;12.90;;;21.70;93.60;;;;;;4934793;29;20477;-76
2022/07/07 06:27:49;;;;;;;13.80;13.13;;;22.20;92.90;;;;;;4934909;29;20500;-74
2022/07/07 06:30:16;;;;;;;13.73;13.10;;;22.30;91.80;;;;;;4934863;29;20453;-75
2022/07/07 06:32:43;;;;;;;13.23;12.70;;;21.80;92.50;;;;;;4933229;29;20539;-73
2022/07/07 06:35:10;;;;;;;12.67;12.07;;;21.90;92.40;;;;;;4933763;29;20853;-74
2022/07/07 06:37:36;;;;;;;14.30;13.43;;;22.40;91.50;;;;;;4933050;29;20461;-74
2022/07/07 06:40:03;;;;;;;14.87;14.07;;;22.70;91.20;;;;;;4934419;29;20790;-74
2022/07/07 06:42:30;;;;;;;13.67;13.07;;;23.00;90.50;;;;;;4934862;29;20493;-75
2022/07/07 06:44:58;;;;;;;13.97;13.17;;;23.30;89.60;;;;;;4932553;29;20519;-76
2022/07/07 06:47:25;;;;;;;13.30;12.73;;;23.70;89.10;;;;;;4934449;29;20454;-76
2022/07/07 06:49:52;;;;;;;13.13;12.50;;;24.60;84.90;;;;;;4934119;29;20453;-75
2022/07/07 06:52:18;;;;;;;13.60;12.87;;;24.70;84.30;;;;;;4934535;29;20466;-76
2022/07/07 06:54:46;;;;;;;12.97;12.17;;;24.10;86.80;;;;;;4934393;29;20548;-76
2022/07/07 06:57:15;;;;;;;13.10;12.20;;;23.70;88.00;;;;;;4934295;29;20503;-76
2022/07/07 06:59:41;;;;;;;12.80;12.10;;;23.70;88.00;;;;;;4934139;29;20464;-75
2022/07/07 07:02:09;;;;;;;13.03;12.53;;;23.60;87.50;;;;;;4933833;29;20865;-74
2022/07/07 07:04:36;;;;;;;12.10;11.43;;;22.90;90.00;;;;;;4933441;29;20979;-74
2022/07/07 07:07:04;;;;;;;13.50;12.90;;;22.40;91.10;;;;;;4933814;29;20454;-74
2022/07/07 07:09:31;;;;;;;13.00;12.50;;;22.30;91.60;;;;;;4933942;29;20488;-74
2022/07/07 07:11:58;;;;;;;13.27;12.47;;;23.10;91.30;;;;;;4933494;29;20464;-74
2022/07/07 07:14:25;;;;;;;12.87;12.17;;;23.90;90.00;;;;;;4933749;29;20607;-74
2022/07/07 07:16:51;;;;;;;13.73;13.03;;;24.20;84.90;;;;;;4933773;29;20460;-74
2022/07/07 07:19:19;;;;;;;13.63;13.03;;;24.70;85.60;;;;;;4933795;29;20457;-75
2022/07/07 07:21:46;;;;;;;13.67;13.07;;;25.00;84.70;;;;;;4932277;29;20475;-75
2022/07/07 07:24:13;;;;;;;13.33;12.83;;;25.10;79.60;;;;;;4933536;29;20500;-74
2022/07/07 07:26:39;;;;;;;13.70;13.10;;;25.20;80.30;;;;;;4933123;29;21042;-75
2022/07/07 07:29:07;;;;;;;13.30;12.70;;;24.90;79.10;;;;;;4933807;29;20454;-74
2022/07/07 07:31:34;;;;;;;13.17;12.47;;;25.20;79.40;;;;;;4933506;29;20816;-75
2022/07/07 07:34:00;;;;;;;12.97;12.40;;;25.20;79.10;;;;;;4933563;29;20453;-75
2022/07/07 07:36:28;;;;;;;13.90;13.27;;;25.60;78.70;;;;;;4933247;29;20951;-74
2022/07/07 07:38:55;;;;;;;12.33;11.83;;;26.10;77.30;;;;;;4933188;29;21022;-74
2022/07/07 07:41:22;;;;;;;12.80;11.97;;;25.80;76.60;;;;;;4933191;29;20499;-75
2022/07/07 07:43:48;;;;;;;13.17;12.37;;;25.20;77.30;;;;;;4933209;29;21041;-75
2022/07/07 07:46:15;;;;;;;12.37;11.67;;;24.90;78.90;;;;;;4933087;29;20936;-74
2022/07/07 07:48:42;;;;;;;13.10;12.20;;;24.80;78.70;;;;;;4932731;29;20552;-74
2022/07/07 07:51:08;;;;;;;12.43;11.83;;;24.70;79.30;;;;;;4932621;29;20559;-74
2022/07/07 07:53:36;;;;;;;13.40;12.70;;;24.40;79.30;;;;;;4930915;29;20940;-75
2022/07/07 07:56:03;;;;;;;11.57;11.07;;;24.70;80.30;;;;;;4932921;29;20464;-74
2022/07/07 07:58:30;;;;;;;12.00;11.40;;;24.60;80.10;;;;;;4932964;29;20994;-75
2022/07/07 08:00:57;;;;;;;12.70;12.17;;;24.20;81.10;;;;;;4932579;29;20875;-74
2022/07/07 08:03:23;;;;;;;12.93;12.40;;;24.10;82.20;;;;;;4930885;29;20480;-73
2022/07/07 08:05:50;;;;;;;12.93;12.43;;;24.30;83.00;;;;;;4930969;29;20528;-73
2022/07/07 08:08:16;;;;;;;12.60;12.10;;;24.40;81.80;;;;;;4932880;29;20457;-74
2022/07/07 08:10:45;;;;;;;13.80;13.00;;;24.10;82.00;;;;;;4932480;29;20461;-74
2022/07/07 08:13:11;;;;;;;13.50;12.47;;;23.60;85.00;;;;;;4932392;29;20460;-74
2022/07/07 08:15:38;;;;;;;13.13;12.43;;;23.30;85.80;;;;;;4932410;29;20462;-75
2022/07/07 08:18:05;;;;;;;13.87;12.80;;;22.90;86.80;;;;;;4932574;29;20460;-74
2022/07/07 08:20:31;;;;;;;11.70;11.20;;;22.70;90.30;;;;;;4932487;29;20461;-75
2022/07/07 08:22:58;;;;;;;12.47;11.90;;;22.50;90.00;;;;;;4932614;29;20457;-75
2022/07/07 08:25:25;;;;;;;12.70;12.10;;;22.40;89.80;;;;;;4932285;29;21027;-75
2022/07/07 08:27:53;;;;;;;13.20;12.60;;;22.40;90.30;;;;;;4932136;29;21003;-75
2022/07/07 08:30:19;;;;;;;13.20;12.60;;;22.60;89.90;;;;;;4932088;29;20960;-75
2022/07/07 08:32:46;;;;;;;12.67;11.97;;;22.70;89.80;;;;;;4932596;29;20450;-75
2022/07/07 08:35:13;;;;;;;13.37;12.60;;;23.00;89.90;;;;;;4932382;29;20454;-75
2022/07/07 08:37:41;;;;;;;12.80;11.87;;;23.00;90.00;;;;;;4932287;29;20453;-75
2022/07/07 08:40:08;;;;;;;12.80;12.10;;;22.90;89.30;;;;;;4932345;29;20712;-75
2022/07/07 08:42:35;;;;;;;13.33;12.40;;;22.80;90.00;;;;;;4932249;29;20831;-75
2022/07/07 08:45:03;;;;;;;14.50;13.50;;;22.80;90.30;;;;;;4932104;29;20493;-75
2022/07/07 08:47:30;;;;;;;13.63;12.63;;;22.70;90.80;;;;;;4932486;29;20453;-75
2022/07/07 08:49:56;;;;;;;13.00;12.50;;;22.60;90.90;;;;;;4932273;29;20461;-75
2022/07/07 08:52:23;;;;;;;13.50;12.77;;;22.60;91.20;;;;;;4932209;29;20970;-75
2022/07/07 08:54:51;;;;;;;12.93;12.33;;;22.70;91.30;;;;;;4932206;29;20962;-75
2022/07/07 08:57:19;;;;;;;13.20;12.60;;;23.10;91.00;;;;;;4932529;29;20939;-75
2022/07/07 08:59:45;;;;;;;15.63;14.63;;;23.80;90.30;;;;;;4932584;29;20461;-75
2022/07/07 09:02:13;;;;;;;13.93;13.13;;;24.80;88.20;;;;;;4932039;29;20461;-75
2022/07/07 09:04:40;;;;;;;13.63;13.13;;;25.40;85.80;;;;;;4931948;29;20493;-75
2022/07/07 09:07:07;;;;;;;13.73;13.13;;;25.50;85.50;;;;;;4932228;29;20466;-75
2022/07/07 09:09:42;;;;;;;13.83;13.20;;;26.20;83.50;;;;;;4932035;29;20457;-75
2022/07/07 09:12:11;;;;;;;14.30;13.50;;;26.30;82.50;;;;;;4931934;29;20457;-75
2022/07/07 09:14:40;;;;;;;13.80;13.20;;;26.10;83.10;;;;;;4931785;29;20462;-75
2022/07/07 09:17:26;;;;;;;14.17;13.27;;;26.30;83.10;;;;;;4931872;29;20446;-75
2022/07/07 09:20:00;;;;;;;14.10;13.10;;;26.20;83.30;;;;;;4931876;29;20544;-75
2022/07/07 09:22:44;;;;;;;14.47;13.70;;;26.20;83.60;;;;;;4931875;29;20456;-75
2022/07/07 09:25:11;;;;;;;13.80;13.10;;;25.90;83.60;;;;;;4931599;29;20492;-75
2022/07/07 09:27:50;;;;;;;14.90;14.10;;;25.70;84.00;;;;;;4931623;29;20897;-75
2022/07/07 09:30:26;;;;;;;13.73;13.10;;;25.00;86.80;;;;;;4931984;29;20453;-75
2022/07/07 09:32:55;;;;;;;13.73;12.97;;;24.40;88.70;;;;;;4931497;29;20468;-74
2022/07/07 09:38:16;;;;;;;13.07;12.47;;;23.90;91.20;;;;;;4931969;29;20440;-75
2022/07/07 09:41:02;;;;;;;13.13;12.33;;;23.70;91.70;;;;;;4931807;29;20971;-75
2022/07/07 09:43:29;;;;;;;12.37;11.70;;;23.70;92.60;;;;;;4931820;29;20872;-75
2022/07/07 09:46:14;;;;;;;11.83;11.23;;;23.40;92.90;;;;;;4931426;29;20492;-75
2022/07/07 09:48:45;;;;;;;12.27;11.77;;;23.30;93.90;;;;;;4931710;29;20453;-75
2022/07/07 09:51:13;;;;;;;12.63;12.00;;;23.10;94.50;;;;;;4931609;29;20464;-74
2022/07/07 09:53:53;;;;;;;11.90;11.20;;;23.00;95.00;;;;;;4931444;29;20457;-75
2022/07/07 09:56:22;;;;;;;12.17;11.67;;;22.90;95.50;;;;;;4931541;29;20472;-74
2022/07/07 09:58:49;;;;;;;12.97;12.37;;;22.70;98.80;;;;;;4935059;29;20574;-74
2022/07/07 10:01:17;;;;;;;12.80;12.30;;;22.20;99.90;;;;;;4935286;29;20480;-74
2022/07/07 10:03:45;;;;;;;12.50;11.90;;;21.90;99.90;;;;;;4934775;29;20563;-74
2022/07/07 10:06:13;;;;;;;13.07;12.47;;;21.90;99.90;;;;;;4934706;29;20489;-74
2022/07/07 10:08:43;;;;;;;13.47;12.73;;;22.00;99.90;;;;;;4934915;29;20461;-75
2022/07/07 10:11:13;;;;;;;13.73;12.90;;;22.30;99.90;;;;;;4934618;29;20522;-75
2022/07/07 10:13:44;;;;;;;12.97;12.27;;;22.70;98.90;;;;;;4934519;29;20461;-75
2022/07/07 10:16:11;;;;;;;13.23;12.63;;;23.00;97.00;;;;;;4934612;29;20485;-76
2022/07/07 10:18:38;;;;;;;13.60;13.00;;;23.10;96.30;;;;;;4934692;29;20786;-75
2022/07/07 10:21:06;;;;;;;13.40;12.80;;;23.30;95.40;;;;;;4934486;29;20457;-75
2022/07/07 10:23:35;;;;;;;11.90;11.47;;;23.50;95.20;;;;;;4934876;29;20461;-75
2022/07/07 10:26:02;;;;;;;13.40;12.90;;;23.70;94.90;;;;;;4934597;29;20580;-75
2022/07/07 10:29:01;;;;;;;13.60;13.00;;;23.40;94.80;;;;;;4934569;29;20475;-75
2022/07/07 10:31:28;;;;;;;13.30;12.80;;;23.80;95.00;;;;;;4875812;29;20871;-75
2022/07/07 10:33:56;;;;;;;13.20;12.70;;;24.50;93.70;;;;;;4875682;29;20459;-76
2022/07/07 10:36:24;;;;;;;12.80;12.20;;;24.40;93.20;;;;;;4902035;29;20575;-76
2022/07/07 10:38:53;;;;;;;14.10;13.47;;;25.40;92.60;;;;;;4934385;29;20806;-76
2022/07/07 10:41:25;;;;;;;13.50;12.90;;;26.20;90.50;;;;;;4934097;29;20454;-76
2022/07/07 10:44:03;;;;;;;13.37;12.87;;;26.30;89.90;;;;;;4934224;29;20457;-74
2022/07/07 10:46:29;;;;;;;13.77;13.17;;;25.70;90.40;;;;;;4934325;29;20485;-74
2022/07/07 10:49:08;;;;;;;13.90;13.30;;;24.90;91.20;;;;;;4934053;29;20528;-74
2022/07/07 10:51:54;;;;;;;13.53;12.53;;;24.90;91.90;;;;;;4934133;29;20461;-74
2022/07/07 10:54:36;;;;;;;13.57;13.07;;;25.00;91.70;;;;;;4934167;29;20544;-74
2022/07/07 10:57:14;;;;;;;13.30;12.73;;;24.80;91.90;;;;;;4934292;29;20489;-74
2022/07/07 11:00:08;;;;;;;13.80;13.30;;;25.00;91.70;;;;;;4933940;29;20458;-73
2022/07/07 11:02:36;;;;;;;13.90;13.20;;;24.80;91.70;;;;;;4933594;29;20458;-73
2022/07/07 11:05:24;;;;;;;14.33;13.73;;;24.70;92.00;;;;;;4933866;29;20485;-74
2022/07/07 11:08:07;;;;;;;13.63;13.13;;;24.60;91.80;;;;;;4933471;29;20984;-74
2022/07/07 11:10:45;;;;;;;13.33;12.73;;;23.90;92.90;;;;;;4933814;29;20449;-73
2022/07/07 11:13:16;;;;;;;14.07;13.17;;;23.60;93.60;;;;;;4933870;29;20536;-74
2022/07/07 11:15:42;;;;;;;13.60;12.90;;;23.50;94.20;;;;;;4933577;29;20489;-74
2022/07/07 11:18:11;;;;;;;13.47;12.83;;;23.30;94.30;;;;;;4933499;29;20464;-74
2022/07/07 11:20:56;;;;;;;13.67;13.00;;;23.10;95.40;;;;;;4933206;29;20603;-73
2022/07/07 11:23:26;;;;;;;13.50;12.80;;;22.80;96.20;;;;;;4933454;29;20706;-72
2022/07/07 11:25:56;;;;;;;12.60;12.10;;;22.80;96.70;;;;;;4933418;29;20547;-72
2022/07/07 11:28:25;;;;;;;12.40;11.90;;;22.90;96.90;;;;;;4933561;29;20453;-73
2022/07/07 11:31:01;;;;;;;13.00;12.40;;;23.20;96.20;;;;;;4933521;29;20790;-73
2022/07/07 11:33:28;;;;;;;11.80;11.37;;;23.60;95.10;;;;;;4933578;29;20468;-73
2022/07/07 11:35:55;;;;;;;12.20;11.63;;;23.80;94.50;;;;;;4933132;29;20468;-73
2022/07/07 11:38:30;;;;;;;12.47;11.97;;;23.70;94.50;;;;;;4933315;29;20483;-72
2022/07/07 11:40:57;;;;;;;12.97;12.13;;;23.50;94.80;;;;;;4933191;29;20452;-74
2022/07/07 11:43:24;;;;;;;12.10;11.60;;;23.40;94.70;;;;;;4931361;29;20816;-73
2022/07/07 11:45:52;;;;;;;12.53;11.70;;;23.40;95.00;;;;;;4933023;29;20497;-73
2022/07/07 11:48:18;;;;;;;12.80;12.20;;;23.30;94.90;;;;;;4933284;29;20457;-73
2022/07/07 11:50:46;;;;;;;11.80;11.20;;;23.30;95.10;;;;;;4933221;29;20458;-74
2022/07/07 11:53:13;;;;;;;12.20;11.40;;;23.40;94.80;;;;;;4932877;29;20461;-74
2022/07/07 11:55:42;;;;;;;12.90;12.30;;;23.60;95.40;;;;;;4932859;29;20548;-73
2022/07/07 11:58:10;;;;;;;12.03;11.50;;;23.10;96.60;;;;;;4932691;29;20453;-73
2022/07/07 12:00:38;;;;;;;13.10;12.30;;;22.80;96.60;;;;;;4932693;29;20467;-73
2022/07/07 12:03:07;;;;;;;13.13;12.40;;;23.00;97.20;;;;;;4932790;29;20464;-73
2022/07/07 12:05:36;;;;;;;12.17;11.47;;;23.30;96.10;;;;;;4932560;29;20500;-74
2022/07/07 12:08:05;;;;;;;12.00;11.50;;;23.40;95.80;;;;;;4932993;29;20460;-73
2022/07/07 12:10:34;;;;;;;12.27;11.57;;;23.70;95.30;;;;;;4932844;29;20523;-74
2022/07/07 12:13:03;;;;;;;11.63;11.13;;;23.80;94.40;;;;;;4932781;29;20461;-74
2022/07/07 12:15:34;;;;;;;12.97;12.43;;;23.30;94.60;;;;;;4932865;29;20453;-73
2022/07/07 12:18:01;;;;;;;12.50;12.00;;;23.30;94.60;;;;;;4932940;29;20548;-74
2022/07/07 12:20:28;;;;;;;12.90;12.23;;;23.40;94.40;;;;;;4932044;29;20805;-74
2022/07/07 12:22:57;;;;;;;11.50;11.10;;;23.40;94.40;;;;;;4932493;29;20465;-74
2022/07/07 12:25:25;;;;;;;11.47;10.97;;;23.60;94.20;;;;;;4932283;29;20500;-75
2022/07/07 12:27:56;;;;;;;12.73;11.93;;;23.80;93.50;;;;;;4932193;29;20497;-74
2022/07/07 12:30:25;;;;;;;12.33;11.80;;;23.80;93.50;;;;;;4932515;29;20692;-75
2022/07/07 12:32:52;;;;;;;11.67;11.10;;;23.90;93.60;;;;;;4932416;29;20461;-75
2022/07/07 12:35:34;;;;;;;12.37;11.50;;;24.20;93.20;;;;;;4932249;29;20461;-75
2022/07/07 12:38:02;;;;;;;12.23;11.63;;;24.40;92.70;;;;;;4932562;29;20463;-75
2022/07/07 12:40:32;;;;;;;13.00;12.40;;;24.60;92.80;;;;;;4932574;29;20537;-74
2022/07/07 12:43:05;;;;;;;12.20;11.70;;;24.40;92.70;;;;;;4932402;29;20445;-75
2022/07/07 12:45:34;;;;;;;12.00;11.30;;;24.70;92.40;;;;;;4932772;29;20492;-75
2022/07/07 12:48:01;;;;;;;13.03;12.33;;;24.80;91.50;;;;;;4932636;29;20457;-75
2022/07/07 12:50:29;;;;;;;12.37;11.87;;;24.70;91.30;;;;;;4932265;29;20464;-75
2022/07/07 12:52:57;;;;;;;12.57;11.93;;;24.60;91.70;;;;;;4932304;29;20834;-74
2022/07/07 12:55:31;;;;;;;13.00;11.90;;;24.40;91.90;;;;;;4932332;29;20686;-75
2022/07/07 12:57:58;;;;;;;13.13;12.23;;;24.20;92.70;;;;;;4932683;29;20461;-74
2022/07/07 13:00:26;;;;;;;11.37;10.87;;;24.30;93.80;;;;;;4932476;29;20457;-74
2022/07/07 13:02:54;;;;;;;12.40;11.80;;;23.90;94.50;;;;;;4932417;29;20460;-74
2022/07/07 13:05:20;;;;;;;11.60;10.90;;;23.80;93.80;;;;;;4932172;29;20520;-74
2022/07/07 13:07:47;;;;;;;11.60;11.10;;;23.90;93.60;;;;;;4932432;29;20453;-74
2022/07/07 13:10:14;;;;;;;11.47;10.87;;;23.80;93.40;;;;;;4932217;29;20457;-74
2022/07/07 13:12:41;;;;;;;11.80;11.23;;;23.40;93.90;;;;;;4932124;29;20453;-74
2022/07/07 13:15:08;;;;;;;12.00;11.30;;;23.20;94.20;;;;;;4931973;29;20971;-74
2022/07/07 13:17:35;;;;;;;12.13;11.60;;;23.20;94.60;;;;;;4932027;29;20465;-75
2022/07/07 13:20:03;;;;;;;12.50;11.70;;;23.30;94.50;;;;;;4932329;29;20461;-75
2022/07/07 13:22:30;;;;;;;12.23;11.63;;;23.60;94.10;;;;;;4932159;29;20936;-75
2022/07/07 13:24:57;;;;;;;12.00;11.40;;;23.80;93.80;;;;;;4931937;29;20886;-74
2022/07/07 13:27:23;;;;;;;12.60;11.70;;;23.70;93.40;;;;;;4931889;29;20968;-75
2022/07/07 13:29:50;;;;;;;11.80;11.20;;;23.80;93.40;;;;;;4931967;29;20449;-73
2022/07/07 13:32:17;;;;;;;11.60;11.10;;;24.10;93.30;;;;;;4934691;29;20565;-74
2022/07/07 13:34:44;;;;;;;11.33;10.77;;;24.10;93.20;;;;;;4935576;29;20555;-74
2022/07/07 13:37:12;;;;;;;11.27;10.77;;;24.00;93.10;;;;;;4935189;29;20947;-74
2022/07/07 13:39:39;;;;;;;11.87;11.37;;;23.90;93.70;;;;;;4935383;29;20886;-74
2022/07/07 13:42:06;;;;;;;11.63;11.03;;;23.50;93.80;;;;;;4935413;29;20480;-74
2022/07/07 13:44:33;;;;;;;10.43;10.03;;;23.30;94.70;;;;;;4935663;29;20449;-74
2022/07/07 13:47:01;;;;;;;13.00;12.30;;;23.20;94.60;;;;;;4935483;29;20496;-74
2022/07/07 13:49:28;;;;;;;13.13;12.53;;;23.30;94.90;;;;;;4935267;29;20457;-74
2022/07/07 13:51:56;;;;;;;12.50;11.93;;;23.30;94.90;;;;;;4935224;29;21059;-75
2022/07/07 13:54:26;;;;;;;13.60;12.80;;;23.30;94.90;;;;;;4935326;29;21288;-75
2022/07/07 13:56:53;;;;;;;14.20;13.30;;;23.20;95.10;;;;;;4935127;29;20516;-74
2022/07/07 13:59:20;;;;;;;10.90;10.50;;;23.00;95.60;;;;;;4935067;29;20493;-73
2022/07/07 14:01:46;;;;;;;12.43;11.60;;;22.10;99.80;;;;;;4935294;29;20461;-74
2022/07/07 14:04:13;;;;;;;11.43;10.93;;;21.40;99.90;;;;;;4934948;29;20454;-73
2022/07/07 14:06:40;;;;;;;11.67;11.07;;;21.00;99.90;;;;;;4934742;29;21050;-73
2022/07/07 14:09:07;;;;;;;11.13;10.53;;;20.90;99.90;;;;;;4934478;29;20458;-71
2022/07/07 14:11:35;;;;;;;10.97;10.57;;;20.80;99.90;;;;;;4934901;29;20876;-73
2022/07/07 14:14:01;;;;;;;11.57;11.07;;;20.50;99.90;;;;;;4934822;29;20603;-72
2022/07/07 14:16:28;;;;;;;12.13;11.40;;;20.30;99.90;;;;;;4934658;29;20487;-72
2022/07/07 14:18:55;;;;;;;12.20;11.70;;;20.00;99.90;;;;;;4934541;29;20509;-73
2022/07/07 14:21:23;;;;;;;10.73;10.33;;;20.00;99.90;;;;;;4934626;29;20457;-73
2022/07/07 14:23:49;;;;;;;12.40;11.87;;;19.80;99.90;;;;;;4934345;29;20465;-73
2022/07/07 14:26:16;;;;;;;11.73;11.10;;;19.90;99.90;;;;;;4934354;29;20870;-73
2022/07/07 14:28:44;;;;;;;12.23;11.63;;;20.20;99.90;;;;;;4934574;29;20815;-72
2022/07/07 14:31:11;;;;;;;11.20;10.80;;;20.10;99.90;;;;;;4934499;29;20462;-73
2022/07/07 14:33:38;;;;;;;11.73;11.23;;;20.30;99.90;;;;;;4934161;29;20457;-73
2022/07/07 14:36:05;;;;;;;12.47;11.90;;;20.10;99.90;;;;;;4934244;29;20450;-73
2022/07/07 14:38:32;;;;;;;22.20;20.90;;;20.00;99.90;;;;;;4934370;29;20461;-72
2022/07/07 14:40:58;;;;;;;25.53;24.17;;;19.80;99.90;;;;;;4934325;29;20508;-72
2022/07/07 14:43:25;;;;;;;29.13;27.50;;;19.40;99.90;;;;;;4933491;29;21077;-72
2022/07/07 14:45:53;;;;;;;30.30;28.60;;;19.00;99.90;;;;;;4934067;29;20855;-71
2022/07/07 14:48:20;;;;;;;29.10;27.60;;;18.70;99.90;;;;;;4934017;29;20469;-72
2022/07/07 14:50:47;;;;;;;29.30;27.77;;;18.50;99.90;;;;;;4934466;29;20509;-73
2022/07/07 14:53:13;;;;;;;30.50;28.90;;;18.60;99.90;;;;;;4934018;29;20512;-72
2022/07/07 14:55:40;;;;;;;30.30;28.87;;;18.60;99.90;;;;;;4933870;29;20457;-72
2022/07/07 14:58:07;;;;;;;28.13;26.83;;;18.70;99.90;;;;;;4933824;29;20469;-72
2022/07/07 15:00:33;;;;;;;25.70;24.27;;;18.90;99.90;;;;;;4933880;29;20461;-71
2022/07/07 15:03:01;;;;;;;23.50;22.40;;;19.10;99.90;;;;;;4933999;29;20486;-71